createdAt,value
2022-08-10T00:00:19.589Z,23.88
2022-08-10T00:01:53.206Z,23.86
2022-08-10T00:03:25.129Z,23.85
2022-08-10T00:04:57.070Z,23.85
2022-08-10T00:06:30.173Z,23.84
2022-08-10T00:08:03.798Z,23.82
2022-08-10T00:09:51.170Z,23.81
2022-08-10T00:11:23.619Z,23.77
2022-08-10T00:12:55.621Z,23.70
2022-08-10T00:14:27.461Z,23.69
2022-08-10T00:15:59.328Z,23.70
2022-08-10T00:17:31.129Z,23.71
2022-08-10T00:19:02.843Z,23.71
2022-08-10T00:20:34.576Z,23.67
2022-08-10T00:22:06.314Z,23.63
2022-08-10T00:23:39.530Z,23.63
2022-08-10T00:25:11.497Z,23.60
2022-08-10T00:28:01.202Z,23.59
2022-08-10T00:28:35.258Z,23.58
2022-08-10T00:30:12.526Z,23.63
2022-08-10T00:31:58.308Z,23.65
2022-08-10T00:33:31.043Z,23.65
2022-08-10T00:35:02.798Z,23.64
2022-08-10T00:36:34.608Z,23.67
2022-08-10T00:38:06.415Z,23.65
2022-08-10T00:39:39.793Z,23.64
2022-08-10T00:41:11.635Z,23.62
2022-08-10T00:42:43.446Z,23.59
2022-08-10T00:44:15.202Z,23.58
2022-08-10T00:45:47.008Z,23.58
2022-08-10T00:47:37.121Z,23.51
2022-08-10T00:49:09.346Z,23.45
2022-08-10T00:50:41.303Z,23.43
2022-08-10T00:52:15.001Z,23.45
2022-08-10T00:53:47.145Z,23.45
2022-08-10T00:55:21.149Z,23.46
2022-08-10T00:57:17.780Z,23.43
2022-08-10T00:58:46.095Z,23.45
2022-08-10T01:00:18.250Z,23.48
2022-08-10T01:02:10.898Z,23.49
2022-08-10T01:04:39.612Z,23.45
2022-08-10T01:05:36.487Z,23.38
2022-08-10T01:07:42.036Z,23.34
2022-08-10T01:09:21.255Z,23.34
2022-08-10T01:11:02.991Z,23.33
2022-08-10T01:12:44.833Z,23.32
2022-08-10T01:14:24.828Z,23.34
2022-08-10T01:16:04.138Z,23.33
2022-08-10T01:17:50.177Z,23.35
2022-08-10T01:19:43.674Z,23.38
2022-08-10T01:21:40.386Z,23.34
2022-08-10T01:24:14.061Z,23.32
2022-08-10T01:26:10.691Z,23.29
2022-08-10T01:27:55.522Z,23.25
2022-08-10T01:29:48.147Z,23.21
2022-08-10T01:31:23.020Z,23.17
2022-08-10T01:33:07.329Z,23.17
2022-08-10T01:34:47.332Z,23.16
2022-08-10T01:36:32.493Z,23.17
2022-08-10T01:38:09.768Z,23.14
2022-08-10T01:39:46.281Z,23.07
2022-08-10T01:41:22.738Z,23.04
2022-08-10T01:43:07.816Z,23.03
2022-08-10T01:44:46.202Z,23.00
2022-08-10T01:46:22.738Z,22.97
2022-08-10T01:48:17.654Z,22.96
2022-08-10T01:49:53.708Z,22.97
2022-08-10T01:51:30.943Z,22.97
2022-08-10T01:53:06.302Z,22.94
2022-08-10T01:54:41.502Z,22.95
2022-08-10T01:56:15.355Z,22.97
2022-08-10T01:57:48.337Z,22.96
2022-08-10T01:59:24.600Z,22.97
2022-08-10T02:01:00.433Z,22.95
2022-08-10T02:02:36.551Z,22.96
2022-08-10T02:04:11.929Z,22.93
2022-08-10T02:05:49.732Z,22.93
2022-08-10T02:07:27.355Z,22.93
2022-08-10T02:09:06.373Z,22.92
2022-08-10T02:10:39.518Z,22.84
2022-08-10T02:12:15.813Z,22.83
2022-08-10T02:13:48.749Z,22.81
2022-08-10T02:15:21.846Z,22.83
2022-08-10T02:16:55.513Z,22.83
2022-08-10T02:18:29.678Z,22.85
2022-08-10T02:20:05.468Z,22.83
2022-08-10T02:21:39.171Z,22.82
2022-08-10T02:23:33.444Z,22.79
2022-08-10T02:25:07.177Z,22.78
2022-08-10T02:26:40.327Z,22.75
2022-08-10T02:28:29.282Z,22.72
2022-08-10T02:30:05.026Z,22.72
2022-08-10T02:31:38.385Z,22.71
2022-08-10T02:33:13.495Z,22.73
2022-08-10T02:34:51.233Z,22.73
2022-08-10T02:36:26.189Z,22.75
2022-08-10T02:38:08.343Z,22.76
2022-08-10T02:39:40.392Z,22.73
2022-08-10T02:45:12.729Z,22.73
2022-08-10T02:45:22.694Z,22.69
2022-08-10T02:45:31.002Z,22.64
2022-08-10T02:47:08.842Z,22.59
2022-08-10T02:48:45.999Z,22.58
2022-08-10T02:50:26.480Z,22.58
2022-08-10T02:52:06.451Z,22.59
2022-08-10T02:53:49.538Z,22.56
2022-08-10T02:55:34.324Z,22.58
2022-08-10T02:57:13.691Z,22.61
2022-08-10T02:58:57.060Z,22.60
2022-08-10T03:00:29.117Z,22.59
2022-08-10T03:02:06.545Z,22.57
2022-08-10T03:03:48.357Z,22.56
2022-08-10T03:05:20.392Z,22.56
2022-08-10T03:06:58.094Z,22.57
2022-08-10T03:08:34.014Z,22.57
2022-08-10T03:10:13.229Z,22.57
2022-08-10T03:12:35.169Z,22.60
2022-08-10T03:13:39.877Z,22.55
2022-08-10T03:15:15.408Z,22.52
2022-08-10T03:16:50.067Z,22.51
2022-08-10T03:18:24.626Z,22.51
2022-08-10T03:20:33.773Z,22.50
2022-08-10T03:21:53.044Z,22.45
2022-08-10T03:23:26.969Z,22.44
2022-08-10T03:25:03.664Z,22.41
2022-08-10T03:26:37.591Z,22.39
2022-08-10T03:28:10.802Z,22.36
2022-08-10T03:30:28.109Z,22.35
2022-08-10T03:31:43.889Z,22.35
2022-08-10T03:33:17.322Z,22.34
2022-08-10T03:34:50.413Z,22.32
2022-08-10T03:36:43.311Z,22.29
2022-08-10T03:38:16.138Z,22.23
2022-08-10T03:39:48.184Z,22.19
2022-08-10T03:41:29.645Z,22.19
2022-08-10T03:43:03.351Z,22.16
2022-08-10T03:44:36.952Z,22.16
2022-08-10T03:46:11.421Z,22.16
2022-08-10T03:47:44.911Z,22.16
2022-08-10T03:49:18.347Z,22.16
2022-08-10T03:50:52.902Z,22.09
2022-08-10T03:52:27.180Z,22.08
2022-08-10T03:54:05.627Z,22.07
2022-08-10T03:56:28.844Z,22.02
2022-08-10T03:57:30.774Z,21.97
2022-08-10T03:59:02.709Z,21.93
2022-08-10T04:00:35.839Z,21.88
2022-08-10T04:02:46.910Z,21.80
2022-08-10T04:04:11.797Z,21.75
2022-08-10T04:05:47.343Z,21.71
2022-08-10T04:07:19.481Z,21.63
2022-08-10T04:08:53.003Z,21.56
2022-08-10T04:10:25.214Z,21.52
2022-08-10T04:11:57.018Z,21.51
2022-08-10T04:13:28.904Z,21.52
2022-08-10T04:15:01.978Z,21.55
2022-08-10T04:16:33.649Z,21.59
2022-08-10T04:18:06.491Z,21.64
2022-08-10T04:19:44.417Z,21.69
2022-08-10T04:21:20.998Z,21.72
2022-08-10T04:22:56.089Z,21.72
2022-08-10T04:24:33.195Z,21.74
2022-08-10T04:26:05.403Z,21.75
2022-08-10T04:27:37.404Z,21.76
2022-08-10T04:29:09.233Z,21.78
2022-08-10T04:30:42.056Z,21.78
2022-08-10T04:32:17.237Z,21.77
2022-08-10T04:33:51.951Z,21.76
2022-08-10T04:35:26.070Z,21.76
2022-08-10T04:37:08.173Z,21.74
2022-08-10T04:38:42.478Z,21.71
2022-08-10T04:40:29.760Z,21.70
2022-08-10T04:42:02.600Z,21.67
2022-08-10T04:43:34.549Z,21.65
2022-08-10T04:45:11.740Z,21.67
2022-08-10T04:46:55.700Z,21.65
2022-08-10T04:48:43.507Z,21.60
2022-08-10T04:50:21.873Z,21.53
2022-08-10T04:51:56.317Z,21.43
2022-08-10T04:53:28.337Z,21.38
2022-08-10T04:55:00.073Z,21.36
2022-08-10T04:56:34.578Z,21.39
2022-08-10T04:58:06.276Z,21.38
2022-08-10T04:59:38.010Z,21.38
2022-08-10T05:01:10.675Z,21.37
2022-08-10T05:02:42.720Z,21.33
2022-08-10T05:04:38.458Z,21.31
2022-08-10T05:06:07.165Z,21.27
2022-08-10T05:07:53.795Z,21.30
2022-08-10T05:09:26.099Z,21.30
2022-08-10T05:10:57.788Z,21.30
2022-08-10T05:12:31.469Z,21.33
2022-08-10T05:14:03.154Z,21.33
2022-08-10T05:15:34.946Z,21.30
2022-08-10T05:17:06.698Z,21.29
2022-08-10T05:18:38.482Z,21.25
2022-08-10T05:20:12.503Z,21.22
2022-08-10T05:22:02.462Z,21.19
2022-08-10T05:23:36.629Z,21.22
2022-08-10T05:25:11.763Z,21.26
2022-08-10T05:27:00.607Z,21.30
2022-08-10T05:28:36.766Z,21.35
2022-08-10T05:30:11.068Z,21.42
2022-08-10T05:31:43.253Z,21.45
2022-08-10T05:33:15.029Z,21.54
2022-08-10T05:34:46.781Z,21.59
2022-08-10T05:36:19.249Z,21.60
2022-08-10T05:38:10.561Z,21.60
2022-08-10T05:39:45.174Z,21.73
2022-08-10T05:41:17.696Z,21.87
2022-08-10T05:42:49.505Z,21.97
2022-08-10T05:44:24.539Z,22.00
2022-08-10T05:46:17.162Z,22.01
2022-08-10T05:48:55.571Z,22.02
2022-08-10T05:49:40.706Z,22.02
2022-08-10T05:51:12.683Z,22.04
2022-08-10T05:52:44.569Z,22.08
2022-08-10T05:54:16.367Z,22.11
2022-08-10T05:55:48.080Z,22.20
2022-08-10T05:57:22.935Z,22.30
2022-08-10T05:58:55.110Z,22.30
2022-08-10T06:00:38.863Z,22.30
2022-08-10T06:02:41.034Z,22.32
2022-08-10T06:04:18.385Z,22.36
2022-08-10T06:05:50.734Z,22.41
2022-08-10T06:07:26.957Z,22.47
2022-08-10T06:08:59.788Z,22.51
2022-08-10T06:10:35.880Z,22.52
2022-08-10T06:12:37.513Z,22.52
2022-08-10T06:14:40.525Z,22.51
2022-08-10T06:16:24.534Z,22.56
2022-08-10T06:18:01.539Z,22.62
2022-08-10T06:19:35.305Z,22.69
2022-08-10T06:21:09.411Z,22.75
2022-08-10T06:22:41.197Z,22.83
2022-08-10T06:24:17.159Z,22.86
2022-08-10T06:26:10.721Z,22.90
2022-08-10T06:27:41.722Z,22.93
2022-08-10T06:29:16.667Z,22.94
2022-08-10T06:30:50.627Z,22.96
2022-08-10T06:32:28.510Z,22.99
2022-08-10T06:34:01.570Z,23.04
2022-08-10T06:35:34.384Z,23.12
2022-08-10T06:37:08.062Z,23.18
2022-08-10T06:38:42.088Z,23.27
2022-08-10T06:40:13.987Z,23.36
2022-08-10T06:41:57.754Z,23.49
2022-08-10T06:43:47.501Z,23.59
2022-08-10T06:45:23.236Z,23.68
2022-08-10T06:46:57.932Z,23.75
2022-08-10T06:48:34.485Z,23.69
2022-08-10T06:50:12.325Z,23.70
2022-08-10T06:51:47.285Z,23.71
2022-08-10T06:53:53.846Z,23.75
2022-08-10T06:55:55.232Z,23.80
2022-08-10T06:57:19.515Z,23.86
2022-08-10T06:58:57.281Z,23.94
2022-08-10T07:00:33.404Z,24.00
2022-08-10T07:02:09.169Z,24.08
2022-08-10T07:03:46.630Z,24.17
2022-08-10T07:05:21.326Z,24.23
2022-08-10T07:06:56.938Z,24.31
2022-08-10T07:08:32.548Z,24.37
2022-08-10T07:10:05.815Z,24.39
2022-08-10T07:11:39.133Z,24.42
2022-08-10T07:13:12.821Z,24.49
2022-08-10T07:14:45.990Z,24.58
2022-08-10T07:16:19.502Z,24.65
2022-08-10T07:17:53.521Z,24.70
2022-08-10T07:19:27.230Z,24.72
2022-08-10T07:21:02.000Z,24.76
2022-08-10T07:23:51.863Z,24.79
2022-08-10T07:24:29.843Z,24.84
2022-08-10T07:26:02.965Z,24.86
2022-08-10T07:27:39.107Z,24.87
2022-08-10T07:29:54.555Z,24.93
2022-08-10T07:31:32.997Z,25.01
2022-08-10T07:33:19.325Z,25.09
2022-08-10T07:34:55.217Z,25.15
2022-08-10T07:36:29.793Z,25.21
2022-08-10T07:38:04.093Z,25.23
2022-08-10T07:40:01.994Z,25.26
2022-08-10T07:41:33.171Z,25.28
2022-08-10T07:43:06.147Z,25.33
2022-08-10T07:44:39.937Z,25.41
2022-08-10T07:46:15.350Z,25.50
2022-08-10T07:47:55.467Z,25.54
2022-08-10T07:49:32.201Z,25.61
2022-08-10T07:51:07.220Z,25.71
2022-08-10T07:52:40.358Z,25.76
2022-08-10T07:54:15.989Z,25.80
2022-08-10T07:56:04.682Z,25.90
2022-08-10T07:57:44.505Z,25.92
2022-08-10T07:59:23.094Z,26.00
2022-08-10T08:00:56.104Z,25.99
2022-08-10T08:02:31.004Z,26.07
2022-08-10T08:04:11.145Z,26.11
2022-08-10T08:06:02.870Z,26.26
2022-08-10T08:07:38.318Z,26.25
2022-08-10T08:09:11.114Z,26.30
2022-08-10T08:10:43.113Z,26.40
2022-08-10T08:12:16.313Z,26.47
2022-08-10T08:13:49.000Z,26.43
2022-08-10T08:16:17.372Z,26.45
2022-08-10T08:17:17.229Z,26.51
2022-08-10T08:19:25.551Z,26.55
2022-08-10T08:20:45.695Z,26.66
2022-08-10T08:24:05.539Z,26.75
2022-08-10T08:24:32.935Z,26.81
2022-08-10T08:26:07.609Z,26.86
2022-08-10T08:27:41.614Z,26.92
2022-08-10T08:29:21.142Z,27.00
2022-08-10T08:30:53.588Z,27.09
2022-08-10T08:32:27.366Z,27.17
2022-08-10T08:34:01.098Z,27.19
2022-08-10T08:35:33.513Z,27.23
2022-08-10T08:37:07.227Z,27.31
2022-08-10T08:38:40.838Z,27.37
2022-08-10T08:40:18.630Z,27.48
2022-08-10T08:42:23.577Z,27.54
2022-08-10T08:44:05.945Z,27.54
2022-08-10T08:46:00.989Z,27.56
2022-08-10T08:48:05.464Z,27.53
2022-08-10T08:50:07.895Z,27.55
2022-08-10T08:52:09.893Z,27.64
2022-08-10T08:54:02.818Z,27.70
2022-08-10T08:56:04.022Z,27.71
2022-08-10T08:57:51.085Z,27.75
2022-08-10T08:59:32.568Z,27.71
2022-08-10T09:01:23.339Z,27.75
2022-08-10T09:03:46.452Z,27.80
2022-08-10T09:06:00.200Z,27.79
2022-08-10T09:08:17.487Z,27.86
2022-08-10T09:10:01.903Z,27.95
2022-08-10T09:11:48.764Z,28.01
2022-08-10T09:13:27.278Z,28.08
2022-08-10T09:15:03.580Z,28.16
2022-08-10T09:16:45.266Z,28.15
2022-08-10T09:18:22.785Z,28.17
2022-08-10T09:20:01.706Z,28.21
2022-08-10T09:22:13.262Z,28.26
2022-08-10T09:24:02.232Z,28.33
2022-08-10T09:25:35.518Z,28.38
2022-08-10T09:27:18.019Z,28.35
2022-08-10T09:29:12.860Z,28.33
2022-08-10T09:31:18.768Z,28.39
2022-08-10T09:36:13.563Z,28.48
2022-08-10T09:36:28.760Z,28.52
2022-08-10T09:36:48.390Z,28.57
2022-08-10T09:38:33.574Z,28.59
2022-08-10T09:40:57.921Z,28.65
2022-08-10T09:42:13.986Z,28.74
2022-08-10T09:43:52.106Z,28.70
2022-08-10T09:45:31.598Z,28.73
2022-08-10T09:47:13.702Z,28.64
2022-08-10T09:48:53.464Z,28.71
2022-08-10T09:51:09.361Z,28.72
2022-08-10T09:52:36.872Z,28.69
2022-08-10T09:54:20.751Z,28.74
2022-08-10T09:56:17.607Z,28.78
2022-08-10T09:58:06.785Z,28.77
2022-08-10T09:59:59.954Z,28.83
2022-08-10T10:02:03.071Z,28.90
2022-08-10T10:03:36.320Z,28.89
2022-08-10T10:05:19.561Z,28.97
2022-08-10T10:06:55.005Z,28.99
2022-08-10T10:08:32.459Z,29.02
2022-08-10T10:10:12.146Z,29.01
2022-08-10T10:11:52.739Z,29.03
2022-08-10T10:14:01.465Z,29.10
2022-08-10T10:15:34.937Z,29.12
2022-08-10T10:17:16.622Z,29.20
2022-08-10T10:19:01.508Z,29.23
2022-08-10T10:20:39.316Z,29.28
2022-08-10T10:22:29.482Z,29.33
2022-08-10T10:24:21.064Z,29.37
2022-08-10T10:26:03.152Z,29.40
2022-08-10T10:27:47.943Z,29.43
2022-08-10T10:29:56.625Z,29.48
2022-08-10T10:31:33.181Z,29.46
2022-08-10T10:33:30.527Z,29.45
2022-08-10T10:35:09.345Z,29.49
2022-08-10T10:36:44.009Z,29.45
2022-08-10T10:38:17.424Z,29.49
2022-08-10T10:39:52.695Z,29.51
2022-08-10T10:42:03.989Z,29.49
2022-08-10T10:43:42.349Z,29.41
2022-08-10T10:45:19.908Z,29.47
2022-08-10T10:47:00.184Z,29.55
2022-08-10T10:48:41.994Z,29.60
2022-08-10T10:50:19.969Z,29.53
2022-08-10T10:52:00.250Z,29.44
2022-08-10T10:53:39.652Z,29.52
2022-08-10T10:55:19.258Z,29.55
2022-08-10T10:56:58.632Z,29.60
2022-08-10T10:58:37.197Z,29.60
2022-08-10T11:00:11.495Z,29.64
2022-08-10T11:01:53.820Z,29.69
2022-08-10T11:03:47.905Z,29.75
2022-08-10T11:05:30.773Z,29.85
2022-08-10T11:07:10.405Z,29.84
2022-08-10T11:08:47.168Z,29.89
2022-08-10T11:10:33.405Z,29.92
2022-08-10T11:12:19.863Z,29.92
2022-08-10T11:14:25.410Z,29.94
2022-08-10T11:16:08.933Z,29.90
2022-08-10T11:17:49.610Z,29.87
2022-08-10T11:20:01.237Z,29.88
2022-08-10T11:21:27.704Z,29.84
2022-08-10T11:23:11.520Z,29.86
2022-08-10T11:24:51.676Z,29.90
2022-08-10T11:26:31.025Z,29.98
2022-08-10T11:28:10.896Z,29.93
2022-08-10T11:29:51.885Z,29.90
2022-08-10T11:31:31.149Z,29.94
2022-08-10T11:33:14.471Z,29.91
2022-08-10T11:35:12.923Z,29.91
2022-08-10T11:36:55.211Z,29.96
2022-08-10T11:38:51.984Z,29.97
2022-08-10T11:40:35.428Z,30.02
2022-08-10T11:42:26.641Z,30.05
2022-08-10T11:44:18.709Z,30.06
2022-08-10T11:45:56.214Z,30.09
2022-08-10T11:47:36.261Z,30.12
2022-08-10T11:49:13.711Z,30.12
2022-08-10T11:50:49.561Z,30.15
2022-08-10T11:52:31.740Z,30.14
2022-08-10T11:54:08.448Z,30.17
2022-08-10T11:55:43.170Z,30.17
2022-08-10T11:57:16.083Z,30.13
2022-08-10T11:59:16.647Z,30.12
2022-08-10T12:00:49.509Z,30.12
2022-08-10T12:02:24.074Z,30.12
2022-08-10T12:03:57.292Z,30.14
2022-08-10T12:05:51.955Z,30.18
2022-08-10T12:08:54.755Z,30.22
2022-08-10T12:10:08.983Z,30.23
2022-08-10T12:11:22.510Z,30.26
2022-08-10T12:13:04.795Z,30.19
2022-08-10T12:14:44.115Z,30.19
2022-08-10T12:16:20.192Z,30.21
2022-08-10T12:17:54.226Z,30.23
2022-08-10T12:19:59.884Z,30.29
2022-08-10T12:21:27.605Z,30.34
2022-08-10T12:23:07.625Z,30.39
2022-08-10T12:24:46.475Z,30.44
2022-08-10T12:26:24.143Z,30.45
2022-08-10T12:28:02.369Z,30.47
2022-08-10T12:29:40.419Z,30.51
2022-08-10T12:31:17.118Z,30.56
2022-08-10T12:32:56.452Z,30.61
2022-08-10T12:34:31.951Z,30.68
2022-08-10T12:36:18.883Z,30.79
2022-08-10T12:38:02.754Z,30.85
2022-08-10T12:39:43.024Z,30.97
2022-08-10T12:41:43.936Z,31.12
2022-08-10T12:44:06.948Z,31.37
2022-08-10T12:45:14.646Z,31.68
2022-08-10T12:46:52.511Z,31.96
2022-08-10T12:48:33.997Z,32.21
2022-08-10T12:50:30.009Z,32.47
2022-08-10T12:52:14.330Z,32.70
2022-08-10T12:53:53.235Z,32.92
2022-08-10T12:55:26.400Z,33.19
2022-08-10T12:57:00.864Z,33.38
2022-08-10T12:58:57.431Z,33.50
2022-08-10T13:00:30.111Z,33.68
2022-08-10T13:02:06.604Z,33.89
2022-08-10T13:04:23.099Z,34.10
2022-08-10T13:05:54.717Z,34.37
2022-08-10T13:08:03.904Z,34.60
2022-08-10T13:09:26.457Z,34.87
2022-08-10T13:11:01.769Z,35.09
2022-08-10T13:12:40.254Z,35.29
2022-08-10T13:14:18.743Z,35.47
2022-08-10T13:15:57.344Z,35.54
2022-08-10T13:17:39.267Z,35.47
2022-08-10T13:19:14.534Z,35.61
2022-08-10T13:20:51.374Z,35.64
2022-08-10T13:22:27.556Z,35.64
2022-08-10T13:24:05.424Z,35.71
2022-08-10T13:25:42.414Z,35.84
2022-08-10T13:27:26.223Z,35.75
2022-08-10T13:29:13.696Z,35.81
2022-08-10T13:30:50.637Z,35.78
2022-08-10T13:32:27.104Z,35.62
2022-08-10T13:34:43.972Z,35.63
2022-08-10T13:35:58.751Z,35.87
2022-08-10T13:37:36.132Z,36.05
2022-08-10T13:39:08.814Z,36.21
2022-08-10T13:40:48.672Z,36.39
2022-08-10T13:42:32.026Z,36.51
2022-08-10T13:44:05.736Z,36.60
2022-08-10T13:45:45.134Z,36.62
2022-08-10T13:47:32.287Z,36.72
2022-08-10T13:49:21.739Z,36.92
2022-08-10T13:51:01.497Z,37.07
2022-08-10T13:52:35.584Z,37.21
2022-08-10T13:54:10.238Z,37.35
2022-08-10T13:55:55.132Z,37.36
2022-08-10T13:57:30.968Z,37.41
2022-08-10T13:59:09.388Z,37.43
2022-08-10T14:00:43.396Z,37.29
2022-08-10T14:02:21.609Z,37.26
2022-08-10T14:03:54.532Z,37.15
2022-08-10T14:05:30.997Z,37.05
2022-08-10T14:07:04.096Z,36.97
2022-08-10T14:08:38.148Z,37.00
2022-08-10T14:10:12.645Z,37.17
2022-08-10T14:11:49.477Z,37.22
2022-08-10T14:13:22.922Z,37.08
2022-08-10T14:14:56.381Z,37.02
2022-08-10T14:16:29.340Z,36.94
2022-08-10T14:18:02.986Z,37.12
2022-08-10T14:19:43.580Z,37.30
2022-08-10T14:21:16.103Z,37.51
2022-08-10T14:22:47.955Z,37.71
2022-08-10T14:24:22.629Z,37.91
2022-08-10T14:25:59.118Z,38.00
2022-08-10T14:28:03.214Z,38.08
2022-08-10T14:29:27.441Z,38.30
2022-08-10T14:31:03.621Z,38.44
2022-08-10T14:32:43.743Z,38.58
2022-08-10T14:34:18.114Z,38.53
2022-08-10T14:36:19.270Z,38.39
2022-08-10T14:37:49.818Z,38.40
2022-08-10T14:39:26.358Z,38.45
2022-08-10T14:41:01.275Z,38.49
2022-08-10T14:42:38.006Z,38.43
2022-08-10T14:44:12.443Z,38.61
2022-08-10T14:45:48.456Z,38.68
2022-08-10T14:47:53.280Z,38.73
2022-08-10T14:49:25.405Z,38.47
2022-08-10T14:50:59.536Z,38.22
2022-08-10T14:52:39.175Z,38.14
2022-08-10T14:54:19.041Z,37.95
2022-08-10T14:55:59.206Z,37.93
2022-08-10T14:58:18.964Z,38.05
2022-08-10T15:00:24.647Z,38.15
2022-08-10T15:01:25.030Z,38.24
2022-08-10T15:03:01.990Z,38.41
2022-08-10T15:04:38.424Z,38.41
2022-08-10T15:06:18.174Z,38.57
2022-08-10T15:07:58.884Z,38.33
2022-08-10T15:09:59.862Z,38.17
2022-08-10T15:12:11.755Z,38.42
2022-08-10T15:13:33.874Z,38.60
2022-08-10T15:15:11.352Z,38.70
2022-08-10T15:16:48.657Z,38.96
2022-08-10T15:18:26.373Z,39.14
2022-08-10T15:20:13.504Z,39.37
2022-08-10T15:21:46.725Z,39.61
2022-08-10T15:24:05.408Z,39.78
2022-08-10T15:25:30.023Z,39.94
2022-08-10T15:27:05.273Z,40.03
2022-08-10T15:29:22.228Z,39.99
2022-08-10T15:30:40.386Z,39.66
2022-08-10T15:32:31.660Z,39.47
2022-08-10T15:34:28.719Z,39.36
2022-08-10T15:36:22.265Z,39.09
2022-08-10T15:38:01.347Z,39.05
2022-08-10T15:40:24.308Z,39.13
2022-08-10T15:41:57.513Z,38.90
2022-08-10T15:43:36.934Z,38.92
2022-08-10T15:45:17.464Z,38.99
2022-08-10T15:46:52.106Z,38.95
2022-08-10T15:48:27.318Z,39.00
2022-08-10T15:50:06.694Z,39.24
2022-08-10T15:51:53.842Z,39.49
2022-08-10T15:53:32.715Z,39.55
2022-08-10T15:55:41.254Z,39.44
2022-08-10T15:57:20.801Z,39.09
2022-08-10T15:59:04.799Z,38.79
2022-08-10T16:00:49.801Z,38.41
2022-08-10T16:02:26.099Z,38.29
2022-08-10T16:04:08.339Z,38.14
2022-08-10T16:06:00.321Z,37.86
2022-08-10T16:07:45.389Z,37.65
2022-08-10T16:10:23.851Z,37.43
2022-08-10T16:11:22.725Z,37.15
2022-08-10T16:12:59.581Z,36.93
2022-08-10T16:14:35.906Z,36.87
2022-08-10T16:16:11.382Z,36.71
2022-08-10T16:17:55.537Z,36.48
2022-08-10T16:19:29.613Z,36.39
2022-08-10T16:21:05.003Z,36.27
2022-08-10T16:22:37.620Z,36.25
2022-08-10T16:24:14.943Z,36.11
2022-08-10T16:25:58.150Z,35.94
2022-08-10T16:27:32.278Z,35.78
2022-08-10T16:29:08.338Z,35.70
2022-08-10T16:30:43.473Z,35.58
2022-08-10T16:32:20.998Z,35.49
2022-08-10T16:33:56.582Z,35.44
2022-08-10T16:35:33.451Z,35.33
2022-08-10T16:37:08.902Z,35.20
2022-08-10T16:38:45.407Z,35.03
2022-08-10T16:40:19.372Z,34.92
2022-08-10T16:42:05.070Z,34.81
2022-08-10T16:43:38.631Z,34.77
2022-08-10T16:45:13.194Z,34.62
2022-08-10T16:46:46.354Z,34.46
2022-08-10T16:48:33.735Z,34.43
2022-08-10T16:50:17.120Z,34.40
2022-08-10T16:51:51.013Z,34.31
2022-08-10T16:53:26.362Z,34.14
2022-08-10T16:55:16.894Z,34.13
2022-08-10T16:57:00.561Z,34.09
2022-08-10T16:58:34.204Z,34.06
2022-08-10T17:00:11.429Z,34.00
2022-08-10T17:01:45.228Z,33.97
2022-08-10T17:04:07.744Z,33.98
2022-08-10T17:06:01.641Z,33.90
2022-08-10T17:07:35.310Z,33.81
2022-08-10T17:09:14.890Z,33.76
2022-08-10T17:10:49.781Z,33.73
2022-08-10T17:12:27.102Z,33.68
2022-08-10T17:14:01.298Z,33.58
2022-08-10T17:15:33.386Z,33.49
2022-08-10T17:17:08.336Z,33.39
2022-08-10T17:18:45.155Z,33.37
2022-08-10T17:20:31.053Z,33.19
2022-08-10T17:22:10.578Z,33.13
2022-08-10T17:23:47.065Z,33.08
2022-08-10T17:25:23.402Z,33.01
2022-08-10T17:28:13.967Z,33.00
2022-08-10T17:29:53.346Z,32.85
2022-08-10T17:31:38.913Z,32.76
2022-08-10T17:33:03.124Z,32.72
2022-08-10T17:34:45.664Z,32.70
2022-08-10T17:36:17.557Z,32.63
2022-08-10T17:37:57.148Z,32.62
2022-08-10T17:39:32.339Z,32.58
2022-08-10T17:41:12.233Z,32.58
2022-08-10T17:42:46.886Z,32.57
2022-08-10T17:44:20.020Z,32.55
2022-08-10T17:45:52.823Z,32.54
2022-08-10T17:47:27.801Z,32.55
2022-08-10T17:49:04.942Z,32.51
2022-08-10T17:50:40.800Z,32.48
2022-08-10T17:52:21.030Z,32.42
2022-08-10T17:53:57.211Z,32.35
2022-08-10T17:55:34.729Z,32.26
2022-08-10T17:57:20.027Z,32.20
2022-08-10T17:58:56.109Z,32.14
2022-08-10T18:00:28.622Z,32.10
2022-08-10T18:02:04.983Z,32.07
2022-08-10T18:03:41.255Z,32.03
2022-08-10T18:05:14.831Z,32.00
2022-08-10T18:06:53.254Z,31.95
2022-08-10T18:08:32.100Z,31.86
2022-08-10T18:10:06.036Z,31.85
2022-08-10T18:11:42.355Z,31.87
2022-08-10T18:13:17.591Z,31.87
2022-08-10T18:14:52.044Z,31.84
2022-08-10T18:16:26.389Z,31.76
2022-08-10T18:18:02.461Z,31.68
2022-08-10T18:19:34.952Z,31.56
2022-08-10T18:21:15.776Z,31.42
2022-08-10T18:22:51.518Z,31.39
2022-08-10T18:24:24.466Z,31.34
2022-08-10T18:26:00.944Z,31.34
2022-08-10T18:28:00.947Z,31.33
2022-08-10T18:29:28.742Z,31.24
2022-08-10T18:31:03.396Z,31.17
2022-08-10T18:32:36.501Z,31.15
2022-08-10T18:34:12.907Z,31.12
2022-08-10T18:35:47.277Z,31.10
2022-08-10T18:37:22.403Z,31.07
2022-08-10T18:38:57.292Z,31.07
2022-08-10T18:40:35.506Z,31.02
2022-08-10T18:42:13.874Z,31.00
2022-08-10T18:44:06.801Z,30.99
2022-08-10T18:45:45.592Z,30.95
2022-08-10T18:47:26.131Z,30.92
2022-08-10T18:49:01.056Z,30.85
2022-08-10T18:50:35.890Z,30.79
2022-08-10T18:52:10.084Z,30.77
2022-08-10T18:53:50.780Z,30.75
2022-08-10T18:55:27.286Z,30.67
2022-08-10T18:57:13.625Z,30.65
2022-08-10T18:59:06.770Z,30.59
2022-08-10T19:00:57.593Z,30.55
2022-08-10T19:02:49.352Z,30.55
2022-08-10T19:04:32.232Z,30.50
2022-08-10T19:06:19.813Z,30.44
2022-08-10T19:08:30.056Z,30.42
2022-08-10T19:10:13.196Z,30.35
2022-08-10T19:11:59.852Z,30.29
2022-08-10T19:13:41.614Z,30.28
2022-08-10T19:15:29.852Z,30.26
2022-08-10T19:17:10.230Z,30.21
2022-08-10T19:19:00.448Z,30.13
2022-08-10T19:20:37.805Z,30.10
2022-08-10T19:22:20.160Z,30.05
2022-08-10T19:24:00.223Z,29.99
2022-08-10T19:26:40.982Z,29.95
2022-08-10T19:27:42.413Z,29.90
2022-08-10T19:30:08.787Z,29.86
2022-08-10T19:31:44.349Z,29.78
2022-08-10T19:33:27.804Z,29.70
2022-08-10T19:35:08.677Z,29.66
2022-08-10T19:36:52.239Z,29.66
2022-08-10T19:38:33.243Z,29.62
2022-08-10T19:40:44.035Z,29.60
2022-08-10T19:42:31.317Z,29.56
2022-08-10T19:44:15.150Z,29.57
2022-08-10T19:46:00.980Z,29.52
2022-08-10T19:47:41.002Z,29.51
2022-08-10T19:49:23.065Z,29.49
2022-08-10T19:51:01.040Z,29.42
2022-08-10T19:52:40.803Z,29.42
2022-08-10T19:54:20.539Z,29.37
2022-08-10T19:56:18.446Z,29.34
2022-08-10T19:57:58.450Z,29.28
2022-08-10T20:00:16.561Z,29.28
2022-08-10T20:01:54.394Z,29.26
2022-08-10T20:03:29.172Z,29.22
2022-08-10T20:05:11.901Z,29.18
2022-08-10T20:06:47.954Z,29.18
2022-08-10T20:08:28.223Z,29.15
2022-08-10T20:10:07.614Z,29.15
2022-08-10T20:11:47.486Z,29.15
2022-08-10T20:13:27.674Z,29.09
2022-08-10T20:15:06.001Z,29.04
2022-08-10T20:16:41.474Z,29.02
2022-08-10T20:18:23.259Z,28.99
2022-08-10T20:20:02.974Z,28.93
2022-08-10T20:21:43.807Z,28.93
2022-08-10T20:23:18.666Z,28.91
2022-08-10T20:24:59.292Z,28.86
2022-08-10T20:26:35.640Z,28.77
2022-08-10T20:28:15.351Z,28.75
2022-08-10T20:29:58.462Z,28.72
2022-08-10T20:31:41.129Z,28.68
2022-08-10T20:33:18.274Z,28.66
2022-08-10T20:34:56.021Z,28.62
2022-08-10T20:36:31.538Z,28.57
2022-08-10T20:38:22.123Z,28.55
2022-08-10T20:40:11.972Z,28.46
2022-08-10T20:41:55.227Z,28.40
2022-08-10T20:43:38.755Z,28.40
2022-08-10T20:45:21.561Z,28.42
2022-08-10T20:47:07.508Z,28.45
2022-08-10T20:48:44.365Z,28.44
2022-08-10T20:50:23.679Z,28.45
2022-08-10T20:52:00.269Z,28.39
2022-08-10T20:53:45.177Z,28.37
2022-08-10T20:55:27.522Z,28.33
2022-08-10T20:57:54.124Z,28.27
2022-08-10T21:00:02.373Z,28.20
2022-08-10T21:02:06.163Z,28.14
2022-08-10T21:03:54.054Z,28.15
2022-08-10T21:05:34.767Z,28.13
2022-08-10T21:08:00.513Z,28.12
2022-08-10T21:09:49.421Z,28.07
2022-08-10T21:11:34.818Z,28.02
2022-08-10T21:13:25.657Z,28.04
2022-08-10T21:15:14.340Z,28.04
2022-08-10T21:17:03.480Z,28.03
2022-08-10T21:18:52.942Z,28.03
2022-08-10T21:20:35.027Z,27.96
2022-08-10T21:22:13.305Z,27.93
2022-08-10T21:23:52.237Z,27.94
2022-08-10T21:25:40.148Z,27.89
2022-08-10T21:27:46.924Z,27.87
2022-08-10T21:29:43.627Z,27.87
2022-08-10T21:31:52.815Z,27.91
2022-08-10T21:33:49.010Z,27.87
2022-08-10T21:37:39.584Z,27.81
2022-08-10T21:39:21.991Z,27.80
2022-08-10T21:41:57.767Z,27.80
2022-08-10T21:44:05.913Z,27.79